createdAt,value
2022-10-09T00:02:32.072Z,98766.3
2022-10-09T00:08:10.439Z,98767.6
2022-10-09T00:14:14.032Z,98762.2
2022-10-09T00:19:47.061Z,98753.3
2022-10-09T00:25:23.594Z,98749.9
2022-10-09T00:31:20.223Z,98746.4
2022-10-09T00:37:13.646Z,98744.1
2022-10-09T00:42:49.491Z,98744.4
2022-10-09T00:48:26.801Z,98741.8
2022-10-09T00:54:01.806Z,98741.6
2022-10-09T00:59:40.027Z,98733.5
2022-10-09T01:05:19.935Z,98733.1
2022-10-09T01:11:28.189Z,98734.9
2022-10-09T01:17:02.402Z,98732.6
2022-10-09T01:22:37.537Z,98722.3
2022-10-09T01:28:14.201Z,98707.9
2022-10-09T01:33:49.827Z,98709.3
2022-10-09T01:39:24.649Z,98706.5
2022-10-09T01:45:33.504Z,98701.2
2022-10-09T01:51:08.711Z,98702.7
2022-10-09T01:56:50.151Z,98698.6
2022-10-09T02:02:25.746Z,98686.2
2022-10-09T02:08:00.906Z,98679.5
2022-10-09T02:13:57.788Z,98667.5
2022-10-09T02:19:30.436Z,98663.5
2022-10-09T02:25:09.911Z,98655.4
2022-10-09T02:30:45.386Z,98651.6
2022-10-09T02:36:20.745Z,98644.8
2022-10-09T02:41:58.493Z,98636.3
2022-10-09T02:47:33.517Z,98629.9
2022-10-09T02:53:08.415Z,98624.8
2022-10-09T02:58:44.464Z,98623.6
2022-10-09T03:04:38.230Z,98621.6
2022-10-09T03:10:30.677Z,98617.4
2022-10-09T03:16:06.358Z,98624
2022-10-09T03:21:43.360Z,98620.8
2022-10-09T03:27:19.262Z,98614.6
2022-10-09T03:32:56.964Z,98614.1
2022-10-09T03:38:32.022Z,98613.8
2022-10-09T03:44:07.295Z,98608.7
2022-10-09T03:49:45.019Z,98604.5
2022-10-09T03:55:27.773Z,98596.3
2022-10-09T04:01:08.325Z,98594.9
2022-10-09T04:06:52.436Z,98597
2022-10-09T04:12:54.816Z,98602.8
2022-10-09T04:18:28.786Z,98593.1
2022-10-09T04:24:04.478Z,98587.7
2022-10-09T04:29:43.149Z,98588.3
2022-10-09T04:35:21.468Z,98589.8
2022-10-09T04:41:08.249Z,98583.8
2022-10-09T04:46:43.233Z,98582.6
2022-10-09T04:52:18.181Z,98583.2
2022-10-09T04:57:53.284Z,98578.5
2022-10-09T05:03:31.301Z,98574.2
2022-10-09T05:09:13.261Z,98573.2
2022-10-09T05:14:48.028Z,98573
2022-10-09T05:20:22.927Z,98573.2
2022-10-09T05:26:46.124Z,98570.9
2022-10-09T05:32:23.202Z,98574.6
2022-10-09T05:38:11.354Z,98569.5
2022-10-09T05:44:00.003Z,98568.8
2022-10-09T05:49:45.139Z,98567.2
2022-10-09T05:55:19.828Z,98560.9
2022-10-09T06:00:57.975Z,98557
2022-10-09T06:06:33.425Z,98552.9
2022-10-09T06:12:29.963Z,98549.5
2022-10-09T06:18:02.607Z,98549.8
2022-10-09T06:23:39.219Z,98547
2022-10-09T06:29:23.723Z,98551.9
2022-10-09T06:35:04.579Z,98549.5
2022-10-09T06:40:39.359Z,98552.1
2022-10-09T06:46:14.626Z,98555.4
2022-10-09T06:52:02.031Z,98556
2022-10-09T06:57:36.737Z,98555.1
2022-10-09T07:03:12.089Z,98557.5
2022-10-09T07:08:48.164Z,98553
2022-10-09T07:14:22.977Z,98556.5
2022-10-09T07:19:57.836Z,98557.2
2022-10-09T07:25:32.795Z,98566.9
2022-10-09T07:31:09.089Z,98562.9
2022-10-09T07:36:45.819Z,98569.1
2022-10-09T07:42:20.741Z,98575.6
2022-10-09T07:48:08.232Z,98575.2
2022-10-09T07:53:44.122Z,98575.5
2022-10-09T07:59:19.324Z,98578.3
2022-10-09T08:04:54.705Z,98580.8
2022-10-09T08:10:30.723Z,98578.9
2022-10-09T08:16:07.093Z,98579.7
2022-10-09T08:21:43.382Z,98582
2022-10-09T08:27:18.866Z,98584
2022-10-09T08:32:54.250Z,98579
2022-10-09T08:38:48.787Z,98578.9
2022-10-09T08:44:23.998Z,98577.5
2022-10-09T08:49:58.852Z,98571.5
2022-10-09T08:55:33.775Z,98571.6
2022-10-09T09:01:09.875Z,98570.9
2022-10-09T09:06:45.201Z,98562.3
2022-10-09T09:12:42.376Z,98555.9
2022-10-09T09:18:15.042Z,98556.8
2022-10-09T09:23:49.957Z,98552.4
2022-10-09T09:29:24.818Z,98545.4
2022-10-09T09:34:59.806Z,98544
2022-10-09T09:40:43.324Z,98538.7
2022-10-09T09:46:31.793Z,98524.7
2022-10-09T09:52:07.595Z,98525.2
2022-10-09T09:57:42.659Z,98521.3
2022-10-09T10:03:17.965Z,98516.8
2022-10-09T10:08:52.844Z,98520.6
2022-10-09T10:14:28.856Z,98514.7
2022-10-09T10:20:03.748Z,98511.4
2022-10-09T10:25:38.501Z,98509.6
2022-10-09T10:31:14.931Z,98504.4
2022-10-09T10:36:51.325Z,98499.6
2022-10-09T10:42:26.137Z,98492
2022-10-09T10:48:01.610Z,98488.8
2022-10-09T10:53:36.621Z,98484.6
2022-10-09T10:59:12.605Z,98480.5
2022-10-09T11:04:47.818Z,98477.1
2022-10-09T11:10:22.952Z,98473.2
2022-10-09T11:15:58.365Z,98471.2
2022-10-09T11:21:35.345Z,98468.8
2022-10-09T11:27:11.159Z,98462.2
2022-10-09T11:32:46.299Z,98456.4
2022-10-09T11:38:22.973Z,98449.4
2022-10-09T11:44:00.237Z,98450.5
2022-10-09T11:49:34.877Z,98442.8
2022-10-09T11:55:09.959Z,98432.9
2022-10-09T12:00:45.406Z,98429.8
2022-10-09T12:06:20.925Z,98424.8
2022-10-09T12:12:17.671Z,98418.3
2022-10-09T12:17:51.329Z,98414.5
2022-10-09T12:23:29.699Z,98407.6
2022-10-09T12:29:06.451Z,98399.6
2022-10-09T12:34:41.385Z,98393.9
2022-10-09T12:40:17.642Z,98385.8
2022-10-09T12:45:54.355Z,98380.6
2022-10-09T12:51:30.036Z,98373.2
2022-10-09T12:57:30.808Z,98361.1
2022-10-09T13:03:06.035Z,98361.4
2022-10-09T13:08:41.097Z,98353.7
2022-10-09T13:14:15.954Z,98343.4
2022-10-09T13:19:52.350Z,98341.3
2022-10-09T13:25:27.334Z,98328.8
2022-10-09T13:31:07.583Z,98319.5
2022-10-09T13:36:47.104Z,98317.5
2022-10-09T13:42:22.227Z,98309.2
2022-10-09T13:47:58.508Z,98302.7
2022-10-09T13:53:34.882Z,98297.2
2022-10-09T13:59:10.506Z,98291.8
2022-10-09T14:04:45.567Z,98291.8
2022-10-09T14:10:24.665Z,98288.5
2022-10-09T14:16:02.919Z,98281.2
2022-10-09T14:21:38.938Z,98284.9
2022-10-09T14:27:14.972Z,98281.1
2022-10-09T14:32:51.750Z,98275.9
2022-10-09T14:38:27.555Z,98268.5
2022-10-09T14:44:03.717Z,98273
2022-10-09T14:49:38.914Z,98263.6
2022-10-09T14:55:14.243Z,98260.6
2022-10-09T15:00:49.170Z,98255.3
2022-10-09T15:06:24.901Z,98253.1
2022-10-09T15:12:00.906Z,98255.5
2022-10-09T15:17:37.969Z,98257.7
2022-10-09T15:23:12.941Z,98258.6
2022-10-09T15:28:55.894Z,98258.3
2022-10-09T15:34:30.932Z,98256.9
2022-10-09T15:40:05.997Z,98258.3
2022-10-09T15:45:41.011Z,98255.4
2022-10-09T15:51:16.066Z,98249.4
2022-10-09T15:56:50.985Z,98257.8
2022-10-09T16:02:25.923Z,98253.7
2022-10-09T16:08:00.869Z,98255.6
2022-10-09T16:13:41.599Z,98249.6
2022-10-09T16:19:16.200Z,98250.7
2022-10-09T16:24:51.353Z,98252.6
2022-10-09T16:30:27.341Z,98248.2
2022-10-09T16:36:02.261Z,98253.3
2022-10-09T16:41:58.997Z,98253.6
2022-10-09T16:47:32.103Z,98256.5
2022-10-09T16:53:07.065Z,98264.3
2022-10-09T16:58:41.988Z,98271.2
2022-10-09T17:04:16.729Z,98275.8
2022-10-09T17:09:51.572Z,98279.5
2022-10-09T17:15:26.381Z,98285.3
2022-10-09T17:21:02.443Z,98287.6
2022-10-09T17:26:37.963Z,98290.1
2022-10-09T17:32:14.082Z,98297.7
2022-10-09T17:37:48.895Z,98302.3
2022-10-09T17:43:23.893Z,98310.9
2022-10-09T17:48:59.063Z,98312
2022-10-09T17:54:34.224Z,98318.4
2022-10-09T18:00:10.244Z,98321.1
2022-10-09T18:05:47.907Z,98331
2022-10-09T18:11:23.700Z,98333.4
2022-10-09T18:16:58.325Z,98338.2
2022-10-09T18:22:33.189Z,98338.9
2022-10-09T18:28:12.806Z,98341.7
2022-10-09T18:34:13.711Z,98342.4
2022-10-09T18:39:48.760Z,98340.1
2022-10-09T18:45:23.968Z,98346.3
2022-10-09T18:50:58.922Z,98351.9
2022-10-09T18:56:45.142Z,98349.6
2022-10-09T19:02:20.130Z,98346.5
2022-10-09T19:08:04.869Z,98344.9
2022-10-09T19:13:40.879Z,98347.4
2022-10-09T19:19:15.702Z,98351.7
2022-10-09T19:25:36.049Z,98352.2
2022-10-09T19:31:12.306Z,98356.6
2022-10-09T19:37:17.235Z,98361
2022-10-09T19:43:14.936Z,98367.2
2022-10-09T19:48:47.505Z,98368.3
2022-10-09T19:55:05.673Z,98371.6
2022-10-09T20:01:30.842Z,98369.3
2022-10-09T20:07:13.498Z,98373.1
2022-10-09T20:13:36.305Z,98379.3
2022-10-09T20:19:37.266Z,98375.4
2022-10-09T20:25:24.966Z,98368.9
2022-10-09T20:31:03.245Z,98371.1
2022-10-09T20:36:42.797Z,98371.9
2022-10-09T20:43:02.093Z,98371.1
2022-10-09T20:48:35.970Z,98375.2
2022-10-09T20:54:10.933Z,98375.3
2022-10-09T20:59:46.009Z,98379.5
2022-10-09T21:05:32.879Z,98380.8
2022-10-09T21:11:08.945Z,98385.3
2022-10-09T21:16:46.616Z,98389.5
2022-10-09T21:22:22.552Z,98387.4
2022-10-09T21:27:57.277Z,98394.7
2022-10-09T21:33:34.868Z,98398.6
2022-10-09T21:39:09.899Z,98400.7
2022-10-09T21:44:52.803Z,98403.9
2022-10-09T21:50:27.896Z,98401.7
2022-10-09T21:56:02.913Z,98406.6
2022-10-09T22:01:38.190Z,98402.2
2022-10-09T22:07:14.124Z,98400.3
2022-10-09T22:12:50.236Z,98406.5
2022-10-09T22:18:29.719Z,98405.7
2022-10-09T22:24:29.750Z,98402.8
2022-10-09T22:30:08.556Z,98399.7
2022-10-09T22:36:09.130Z,98395
2022-10-09T22:42:25.585Z,98389.2
2022-10-09T22:47:58.614Z,98393.3
2022-10-09T22:53:33.380Z,98394.5
2022-10-09T22:59:08.489Z,98388.3
2022-10-09T23:04:48.015Z,98387.6
2022-10-09T23:10:27.166Z,98384.3
2022-10-09T23:16:02.074Z,98381.4
2022-10-09T23:21:39.025Z,98378.8
2022-10-09T23:27:13.859Z,98380.5
2022-10-09T23:32:53.096Z,98391.4
2022-10-09T23:38:37.117Z,98395.4
2022-10-09T23:44:23.009Z,98401.2
2022-10-09T23:49:58.032Z,98404.7
2022-10-09T23:55:56.117Z,98403.8
